Drobeta Tr. Severin, Romania
Current Conditions -  °F | °C
As of 8:00 AM on Saturday 29 Nov 2014 (Local Time) from LRCV Reporting Station
Haze Haze  
Wind Chill: 23°   Ceiling: Unl
Heat Index: 28°   Visibility: 2.6mi
Dew Point: 27°   Wind: 5mph
Humidity: 93%   Direction: 80°E
Pressure: 30.24"   Gusts: NA
Location:  44.63°N, 22.63°E
Report Text: LRCV 290500Z 08004KT 4300 BR NSC M02/M03 Q1024
Loading
Personal Weather Stations






























Interactive Weather Map New forecast layout! Learn more

10-Day Weather Forecast

Advertisements
Track Severe Weather on mobile